Time;durP1;ratioP1;P1;durP2;ratioP2;P2;SDS_P1;SDS_P2;PMS_P1;PMS_P2;Temp;Humidity;BMP_temperature;BMP_pressure;BME280_temperature;BME280_humidity;BME280_pressure;Samples;Min_cycle;Max_cycle;Signal;HPM_P1;HPM_P2
2022/02/02 00:00:54;;;;;;;37.05;3.95;;;7.80;99.90;;;;;;5013491;28;20030;-81
2022/02/02 00:03:22;;;;;;;40.33;5.20;;;7.70;99.90;;;;;;5013565;28;20029;-80
2022/02/02 00:13:57;;;;;;;38.63;5.47;;;7.80;99.90;;;;;;5013980;28;20041;-81
2022/02/02 00:16:49;;;;;;;41.88;5.22;;;7.90;99.90;;;;;;4998804;28;20432;-81
2022/02/02 00:19:20;;;;;;;38.70;5.25;;;7.90;99.90;;;;;;5014167;28;20037;-81
2022/02/02 00:21:49;;;;;;;36.25;4.30;;;7.90;99.90;;;;;;5012777;28;20034;-81
2022/02/02 00:24:28;;;;;;;44.97;5.35;;;7.90;99.90;;;;;;4996258;28;20088;-81
2022/02/02 00:26:57;;;;;;;41.55;5.72;;;7.90;99.90;;;;;;5013922;28;20553;-81
2022/02/02 00:29:30;;;;;;;47.40;5.57;;;7.80;99.90;;;;;;4997872;28;20429;-80
2022/02/02 00:32:04;;;;;;;30.40;4.88;;;7.80;99.90;;;;;;4992032;28;20035;-81
2022/02/02 00:34:31;;;;;;;40.63;5.00;;;7.90;99.90;;;;;;4995744;28;20023;-81
2022/02/02 00:36:58;;;;;;;37.17;4.70;;;7.90;99.90;;;;;;4995975;28;20026;-76
2022/02/02 00:39:28;;;;;;;35.03;4.15;;;8.00;99.90;;;;;;4996165;28;20037;-78
2022/02/02 00:41:56;;;;;;;44.38;6.18;;;8.00;99.90;;;;;;4996983;28;20065;-79
2022/02/02 00:44:23;;;;;;;34.30;5.28;;;8.00;99.90;;;;;;5009432;28;20437;-78
2022/02/02 00:46:48;;;;;;;36.13;4.45;;;7.90;99.90;;;;;;4997748;28;20030;-78
2022/02/02 00:49:14;;;;;;;31.75;3.13;;;8.00;99.90;;;;;;5020027;28;20056;-78
2022/02/02 00:51:49;;;;;;;42.15;4.43;;;7.90;99.90;;;;;;5010592;28;20030;-77
2022/02/02 00:54:20;;;;;;;37.53;4.95;;;7.90;99.90;;;;;;5014295;28;20038;-81
2022/02/02 00:56:46;;;;;;;43.42;6.63;;;8.00;99.90;;;;;;5013334;28;20049;-81
2022/02/02 00:59:13;;;;;;;35.90;4.90;;;8.00;99.90;;;;;;5013379;28;20178;-81
2022/02/02 01:01:39;;;;;;;40.45;5.13;;;8.10;99.90;;;;;;5009754;28;20017;-79
2022/02/02 01:04:05;;;;;;;42.28;5.25;;;8.10;99.90;;;;;;5012096;28;20386;-77
2022/02/02 01:06:35;;;;;;;40.33;5.38;;;8.20;99.90;;;;;;5012974;28;20040;-79
2022/02/02 01:17:15;;;;;;;46.47;5.93;;;8.20;99.90;;;;;;5013338;28;20036;-78
2022/02/02 01:29:53;;;;;;;42.75;4.57;;;8.20;99.90;;;;;;5012692;28;20045;-81
2022/02/02 01:32:18;;;;;;;30.65;4.32;;;8.20;99.90;;;;;;5000144;28;20022;-79
2022/02/02 01:34:44;;;;;;;37.83;5.28;;;8.20;99.90;;;;;;4999015;28;20453;-79
2022/02/02 01:37:10;;;;;;;36.95;5.57;;;8.10;99.90;;;;;;5011819;28;20026;-77
2022/02/02 01:39:36;;;;;;;44.60;4.85;;;8.00;99.90;;;;;;5010222;28;20038;-79
2022/02/02 01:42:06;;;;;;;36.65;4.60;;;8.00;99.90;;;;;;5015657;28;20021;-79
2022/02/02 01:46:58;;;;;;;36.83;4.63;;;7.90;99.90;;;;;;5012866;28;20033;-79
2022/02/02 01:50:05;;;;;;;38.30;4.30;;;7.90;99.90;;;;;;5011260;28;20022;-78
2022/02/02 01:52:46;;;;;;;40.83;5.05;;;7.90;99.90;;;;;;5010565;28;20037;-79
2022/02/02 01:55:16;;;;;;;34.72;4.18;;;7.80;99.90;;;;;;5011102;28;20089;-80
2022/02/02 01:58:03;;;;;;;44.10;6.30;;;7.80;99.90;;;;;;5013554;28;20034;-81
2022/02/02 02:00:28;;;;;;;31.67;4.03;;;7.70;99.90;;;;;;5002633;28;20065;-81
2022/02/02 02:02:54;;;;;;;46.80;5.53;;;7.80;99.90;;;;;;5011213;28;20046;-78
2022/02/02 02:05:20;;;;;;;35.63;4.55;;;7.80;99.90;;;;;;5010156;28;20105;-78
2022/02/02 02:07:47;;;;;;;38.50;4.85;;;7.80;99.90;;;;;;5012163;28;20018;-78
2022/02/02 02:10:13;;;;;;;30.58;4.82;;;7.80;99.90;;;;;;4993964;28;20402;-78
2022/02/02 02:12:51;;;;;;;48.85;5.60;;;7.80;99.90;;;;;;4994042;28;20022;-79
2022/02/02 02:15:18;;;;;;;31.73;4.22;;;7.80;99.90;;;;;;5006907;28;20053;-78
2022/02/02 02:17:44;;;;;;;39.15;4.45;;;7.70;99.90;;;;;;5012044;28;20029;-79
2022/02/02 02:20:10;;;;;;;35.47;4.88;;;7.70;99.90;;;;;;5008901;28;20034;-79
2022/02/02 02:22:39;;;;;;;46.95;4.80;;;7.60;99.90;;;;;;5011791;28;20030;-78
2022/02/02 02:25:05;;;;;;;34.70;4.22;;;7.60;99.90;;;;;;5016178;28;20071;-79
2022/02/02 02:27:31;;;;;;;33.67;4.20;;;7.60;99.90;;;;;;5012015;28;20033;-78
2022/02/02 02:30:03;;;;;;;37.92;5.18;;;7.60;99.90;;;;;;5010203;28;20026;-78
2022/02/02 02:33:02;;;;;;;39.85;5.40;;;7.60;99.90;;;;;;5011694;28;20022;-79
2022/02/02 02:38:25;;;;;;;40.75;4.55;;;7.50;99.90;;;;;;5008639;28;21432;-78
2022/02/02 02:57:13;;;;;;;35.47;4.78;;;7.70;99.90;;;;;;5015360;28;20060;-79
2022/02/02 02:59:47;;;;;;;37.85;4.22;;;7.70;99.90;;;;;;4999748;28;20069;-79
2022/02/02 03:29:56;;;;;;;37.10;4.65;;;8.00;99.90;;;;;;5011048;28;20040;-79
2022/02/02 03:35:10;;;;;;;42.65;4.63;;;7.90;99.90;;;;;;5002987;28;20378;-77
2022/02/02 03:56:55;;;;;;;35.95;4.45;;;8.00;99.90;;;;;;5014493;28;20057;-79
2022/02/02 04:04:39;;;;;;;41.88;4.82;;;8.00;99.90;;;;;;5013330;28;20038;-79
2022/02/02 04:07:09;;;;;;;41.05;4.72;;;8.00;99.90;;;;;;4995105;28;20033;-79
2022/02/02 04:09:37;;;;;;;38.78;5.47;;;8.00;99.90;;;;;;5013179;28;20037;-78
2022/02/02 04:55:06;;;;;;;43.15;5.25;;;7.90;99.90;;;;;;5013816;28;20477;-79
2022/02/02 05:10:40;;;;;;;39.40;5.40;;;8.00;99.90;;;;;;5011949;28;20428;-79
2022/02/02 05:14:12;;;;;;;42.78;5.40;;;7.90;99.90;;;;;;5000208;28;20080;-79
2022/02/02 05:19:02;;;;;;;41.80;3.83;;;7.90;99.90;;;;;;5009277;28;20167;-77
2022/02/02 05:43:46;;;;;;;36.53;5.38;;;7.70;99.90;;;;;;5016692;22;20088;-79
2022/02/02 05:51:10;;;;;;;44.72;4.47;;;7.70;99.90;;;;;;5008702;28;20038;-80
2022/02/02 05:53:36;;;;;;;37.70;5.30;;;7.70;99.90;;;;;;5001921;28;20387;-80
2022/02/02 05:56:03;;;;;;;37.67;4.55;;;7.60;99.90;;;;;;5008290;28;20068;-80
2022/02/02 05:58:31;;;;;;;39.65;4.78;;;7.60;99.90;;;;;;5006554;28;20026;-81
2022/02/02 06:00:59;;;;;;;35.63;5.13;;;7.60;99.90;;;;;;5011610;28;20033;-80
2022/02/02 06:03:46;;;;;;;39.85;4.45;;;7.60;99.90;;;;;;5010239;28;20029;-80
2022/02/02 06:06:12;;;;;;;33.95;3.90;;;7.50;99.90;;;;;;5011162;28;20029;-80
2022/02/02 06:08:43;;;;;;;42.00;4.57;;;7.50;99.90;;;;;;4993892;28;20029;-80
2022/02/02 06:11:11;;;;;;;37.33;4.13;;;7.50;99.90;;;;;;5009726;28;20022;-80
2022/02/02 06:13:45;;;;;;;51.97;5.60;;;7.50;99.90;;;;;;5003576;28;20029;-80
2022/02/02 06:16:11;;;;;;;35.28;4.93;;;7.50;99.90;;;;;;5004193;28;20029;-80
2022/02/02 06:18:38;;;;;;;39.72;4.75;;;7.40;99.90;;;;;;5010226;28;20424;-79
2022/02/02 06:21:06;;;;;;;54.05;5.03;;;7.40;99.90;;;;;;5015002;28;20021;-80
2022/02/02 06:23:39;;;;;;;39.13;4.70;;;7.30;99.90;;;;;;5011986;28;20516;-80
2022/02/02 06:26:12;;;;;;;34.65;4.10;;;7.30;99.90;;;;;;5007924;28;20033;-80
2022/02/02 06:28:42;;;;;;;43.00;4.53;;;7.20;99.90;;;;;;5013216;28;20382;-80
2022/02/02 06:31:10;;;;;;;33.67;4.20;;;7.10;99.90;;;;;;5003352;28;20068;-80
2022/02/02 06:33:37;;;;;;;40.17;3.83;;;7.00;99.90;;;;;;5011233;28;20026;-79
2022/02/02 06:36:05;;;;;;;32.33;4.15;;;7.00;99.90;;;;;;5007197;28;20481;-80
2022/02/02 06:38:32;;;;;;;37.53;4.40;;;6.90;99.90;;;;;;5001548;28;20022;-79
2022/02/02 06:40:59;;;;;;;45.30;6.07;;;6.80;99.90;;;;;;4993037;28;20120;-80
2022/02/02 06:43:27;;;;;;;33.90;4.25;;;6.80;99.90;;;;;;5008859;28;20049;-80
2022/02/02 06:45:54;;;;;;;34.67;4.75;;;6.80;99.90;;;;;;5006805;28;20417;-80
2022/02/02 06:48:20;;;;;;;47.13;5.03;;;6.70;99.90;;;;;;5004049;28;20034;-80
2022/02/02 06:50:56;;;;;;;26.42;3.83;;;6.70;99.90;;;;;;5001518;28;20072;-79
2022/02/02 06:53:28;;;;;;;33.17;4.20;;;6.70;99.90;;;;;;5003031;28;20030;-79
2022/02/02 06:56:26;;;;;;;37.65;4.22;;;6.70;99.90;;;;;;5004850;28;20418;-83
2022/02/02 07:10:25;;;;;;;43.55;5.30;;;6.60;99.90;;;;;;5005333;28;21858;-79
2022/02/02 07:15:57;;;;;;;35.28;3.25;;;6.60;99.90;;;;;;5022329;28;20030;-81
2022/02/02 07:26:32;;;;;;;30.42;4.43;;;6.60;99.90;;;;;;5015949;28;20034;-79
2022/02/02 07:29:16;;;;;;;36.00;3.30;;;6.60;99.90;;;;;;5031546;28;20506;-80
2022/02/02 07:35:15;;;;;;;39.47;3.90;;;6.60;99.90;;;;;;5017717;28;20027;-80
2022/02/02 07:37:53;;;;;;;48.90;4.85;;;6.60;99.90;;;;;;5016644;28;20076;-79
2022/02/02 07:40:20;;;;;;;38.92;3.65;;;6.60;99.90;;;;;;5011096;28;20037;-78
2022/02/02 07:42:49;;;;;;;36.67;3.30;;;6.60;99.90;;;;;;5005787;28;20030;-79
2022/02/02 07:45:19;;;;;;;40.20;5.35;;;6.70;99.90;;;;;;4988220;28;20042;-80
2022/02/02 07:47:49;;;;;;;40.53;4.30;;;6.70;99.90;;;;;;4993063;28;20030;-79
2022/02/02 07:50:15;;;;;;;42.10;4.30;;;6.80;99.90;;;;;;5012996;28;20047;-80
2022/02/02 07:52:43;;;;;;;34.38;3.58;;;6.80;99.90;;;;;;5021744;28;20036;-80
2022/02/02 07:55:12;;;;;;;38.50;6.05;;;6.90;99.90;;;;;;4996598;28;20053;-80
2022/02/02 07:57:37;;;;;;;38.30;4.00;;;6.90;99.90;;;;;;4999290;28;20558;-80
2022/02/02 08:00:10;;;;;;;47.40;4.70;;;7.00;99.90;;;;;;4990881;28;20145;-79
2022/02/02 08:05:20;;;;;;;47.00;5.28;;;7.10;99.90;;;;;;5015107;28;20061;-80
2022/02/02 08:07:57;;;;;;;37.60;4.78;;;7.10;99.90;;;;;;5027285;28;20034;-80
2022/02/02 08:10:25;;;;;;;46.08;5.07;;;7.10;99.90;;;;;;5007990;28;20026;-80
2022/02/02 08:12:56;;;;;;;47.25;5.53;;;7.10;99.90;;;;;;5001968;28;20429;-79
2022/02/02 08:15:23;;;;;;;38.10;4.38;;;7.20;99.90;;;;;;5013542;28;20492;-80
2022/02/02 08:17:51;;;;;;;41.65;4.45;;;7.20;99.90;;;;;;5033085;28;20033;-80
2022/02/02 08:20:17;;;;;;;42.00;4.43;;;7.20;99.90;;;;;;5014463;28;20060;-80
2022/02/02 08:22:44;;;;;;;47.70;6.18;;;7.20;99.90;;;;;;5027009;28;20031;-79
2022/02/02 08:25:16;;;;;;;39.50;4.00;;;7.20;99.90;;;;;;5032678;28;20041;-79
2022/02/02 08:27:42;;;;;;;43.03;5.20;;;7.10;99.90;;;;;;5031207;28;20469;-79
2022/02/02 08:30:12;;;;;;;40.95;5.47;;;7.10;99.90;;;;;;5021964;28;20037;-79
2022/02/02 08:32:50;;;;;;;41.65;4.25;;;7.10;99.90;;;;;;5014699;28;20472;-78
2022/02/02 08:35:19;;;;;;;46.85;5.75;;;7.10;99.90;;;;;;4990067;28;20068;-79
2022/02/02 08:37:48;;;;;;;49.13;6.35;;;7.00;99.90;;;;;;5009103;28;20526;-79
2022/02/02 08:42:48;;;;;;;49.92;5.65;;;7.20;99.90;;;;;;4997723;28;20022;-78
2022/02/02 08:45:27;;;;;;;41.80;4.28;;;7.20;99.90;;;;;;5010919;28;20540;-78
2022/02/02 08:47:58;;;;;;;41.92;4.63;;;7.20;99.90;;;;;;5012015;28;20082;-78
2022/02/02 08:50:31;;;;;;;36.00;4.53;;;7.30;99.90;;;;;;5017809;28;20033;-78
2022/02/02 08:53:05;;;;;;;47.03;6.22;;;7.30;99.90;;;;;;5014967;28;20022;-78
2022/02/02 08:55:58;;;;;;;36.55;5.15;;;7.30;99.90;;;;;;5026749;28;20033;-78
2022/02/02 08:58:36;;;;;;;47.53;4.88;;;7.40;99.90;;;;;;5002619;28;20030;-78
2022/02/02 09:01:07;;;;;;;35.65;4.30;;;7.40;99.90;;;;;;5030296;28;20083;-79
2022/02/02 09:06:17;;;;;;;48.78;5.90;;;7.50;99.90;;;;;;5024615;28;20063;-78
2022/02/02 09:08:46;;;;;;;39.85;6.32;;;7.50;99.90;;;;;;5027254;28;20033;-79
2022/02/02 09:33:47;;;;;;;39.20;5.05;;;8.00;99.90;;;;;;5012708;28;20049;-80
2022/02/02 09:36:05;;;;;;;46.47;5.07;;;8.10;99.90;;;;;;4991856;28;20041;-80
2022/02/02 09:38:31;;;;;;;42.70;4.82;;;8.20;99.90;;;;;;4995485;28;20033;-80
2022/02/02 09:43:29;;;;;;;36.88;4.07;;;8.30;99.90;;;;;;5004931;28;20091;-79
2022/02/02 09:46:01;;;;;;;37.53;5.57;;;8.40;99.90;;;;;;5025328;28;20028;-79
2022/02/02 09:48:32;;;;;;;33.10;4.38;;;8.50;99.90;;;;;;5010960;28;20034;-80
2022/02/02 09:51:05;;;;;;;34.10;3.92;;;8.50;99.90;;;;;;5016844;28;20041;-81
2022/02/02 09:53:42;;;;;;;;;;;8.60;99.90;;;;;;5020912;28;20022;-80
2022/02/02 09:59:05;;;;;;;29.15;3.83;;;8.70;99.90;;;;;;5019502;28;20026;-80
2022/02/02 10:07:11;;;;;;;37.80;4.10;;;8.80;99.90;;;;;;5013662;28;20034;-80
2022/02/02 10:09:55;;;;;;;49.20;5.75;;;8.90;99.90;;;;;;5004954;28;20104;-80
2022/02/02 10:12:47;;;;;;;31.80;4.53;;;9.00;99.90;;;;;;5030707;28;20029;-80
2022/02/02 10:15:18;;;;;;;29.23;4.57;;;9.00;99.90;;;;;;5019251;28;20389;-80
2022/02/02 10:17:47;;;;;;;31.50;4.90;;;9.00;99.90;;;;;;5021590;28;20033;-80
2022/02/02 10:20:21;;;;;;;32.72;4.80;;;9.00;99.90;;;;;;5009390;28;20109;-79
2022/02/02 10:22:48;;;;;;;31.23;3.60;;;8.90;99.90;;;;;;5009577;28;20092;-80
2022/02/02 10:25:31;;;;;;;40.00;4.85;;;8.90;99.90;;;;;;5012229;28;20037;-79
2022/02/02 10:28:20;;;;;;;33.25;3.83;;;8.90;99.90;;;;;;5015793;28;20029;-78
2022/02/02 10:30:47;;;;;;;32.33;4.63;;;8.80;99.90;;;;;;5003714;28;20026;-78
2022/02/02 10:33:14;;;;;;;33.15;4.07;;;8.80;99.90;;;;;;5020699;28;20064;-79
2022/02/02 10:35:42;;;;;;;33.95;4.03;;;8.80;99.90;;;;;;5013149;28;20113;-78
2022/02/02 10:38:14;;;;;;;28.30;4.20;;;8.80;99.90;;;;;;5025902;28;20474;-79
2022/02/02 10:43:27;;;;;;;42.75;5.07;;;8.90;99.90;;;;;;5009752;28;20045;-79
2022/02/02 10:45:53;;;;;;;31.30;4.20;;;8.90;99.90;;;;;;5008238;28;20478;-78
2022/02/02 10:48:31;;;;;;;31.00;4.75;;;9.00;99.90;;;;;;5004168;28;20025;-77
2022/02/02 10:51:05;;;;;;;31.08;4.45;;;9.00;99.90;;;;;;5014413;28;20369;-78
2022/02/02 10:53:43;;;;;;;30.88;3.97;;;9.10;99.90;;;;;;4999904;28;20116;-78
2022/02/02 10:56:35;;;;;;;36.70;3.25;;;9.10;99.90;;;;;;5001820;28;20048;-78
2022/02/02 11:01:44;;;;;;;26.00;3.63;;;9.20;99.90;;;;;;5027447;28;20082;-78
2022/02/02 11:06:54;;;;;;;32.65;3.67;;;9.50;99.90;;;;;;5004405;28;20805;-79
2022/02/02 11:09:20;;;;;;;27.70;2.83;;;9.50;99.90;;;;;;5009715;28;20030;-79
2022/02/02 11:11:52;;;;;;;27.75;3.85;;;9.60;99.90;;;;;;4983466;28;20033;-79
2022/02/02 11:14:35;;;;;;;24.45;2.58;;;9.60;99.90;;;;;;5014000;28;20084;-79
2022/02/02 11:17:16;;;;;;;27.25;3.53;;;9.60;99.90;;;;;;5015193;28;20022;-79
2022/02/02 11:19:48;;;;;;;33.08;3.22;;;9.50;99.90;;;;;;4995646;28;20034;-79
2022/02/02 11:22:33;;;;;;;33.45;4.10;;;9.40;99.90;;;;;;4996100;28;20029;-79
2022/02/02 11:25:11;;;;;;;32.78;5.35;;;9.40;99.90;;;;;;5006042;28;20116;-79
2022/02/02 11:27:43;;;;;;;28.42;3.63;;;9.60;99.90;;;;;;5015595;28;20025;-80
2022/02/02 11:30:25;;;;;;;32.17;3.60;;;9.60;99.90;;;;;;5012836;28;20030;-79
2022/02/02 11:32:54;;;;;;;27.98;3.00;;;9.70;99.90;;;;;;5002862;28;20085;-78
2022/02/02 11:35:46;;;;;;;27.48;3.55;;;9.70;99.90;;;;;;5010405;28;20041;-77
2022/02/02 11:38:26;;;;;;;30.38;3.40;;;9.80;99.90;;;;;;5014462;28;20564;-78
2022/02/02 11:41:15;;;;;;;27.00;3.00;;;9.80;99.90;;;;;;4996417;28;20034;-79
2022/02/02 11:44:01;;;;;;;21.80;2.53;;;9.90;99.90;;;;;;4997640;28;20061;-79
2022/02/02 11:50:02;;;;;;;25.25;3.67;;;9.80;99.90;;;;;;5015346;28;20500;-80
2022/02/02 11:52:50;;;;;;;22.55;2.78;;;9.80;99.90;;;;;;5015088;28;20046;-80
2022/02/02 11:55:19;;;;;;;28.58;2.47;;;9.80;99.90;;;;;;4994978;28;20034;-78
2022/02/02 11:58:14;;;;;;;19.50;2.47;;;9.80;99.90;;;;;;4995429;28;20101;-80
2022/02/02 12:01:19;;;;;;;35.60;3.85;;;9.70;99.90;;;;;;4995169;28;20042;-79
2022/02/02 12:09:16;;;;;;;20.02;2.10;;;9.90;99.90;;;;;;4996080;28;20034;-81
2022/02/02 12:57:51;;;;;;;19.88;1.80;;;10.10;99.90;;;;;;5017015;28;20030;-78
2022/02/02 13:00:35;;;;;;;20.90;2.28;;;10.20;99.90;;;;;;5030669;28;20041;-78
2022/02/02 13:03:02;;;;;;;14.70;2.03;;;10.20;99.90;;;;;;5003589;28;20044;-78
2022/02/02 13:05:27;;;;;;;17.23;1.40;;;10.20;99.90;;;;;;5010532;28;20030;-80
2022/02/02 13:07:55;;;;;;;25.73;2.30;;;10.20;99.90;;;;;;4999929;28;20107;-79
2022/02/02 13:10:25;;;;;;;21.65;2.00;;;10.30;99.90;;;;;;4995971;28;20080;-78
2022/02/02 13:13:11;;;;;;;17.15;2.15;;;10.30;99.90;;;;;;5013353;28;20021;-79
2022/02/02 13:15:54;;;;;;;19.00;1.80;;;10.30;99.90;;;;;;5014837;28;20022;-79
2022/02/02 13:18:27;;;;;;;18.00;2.25;;;10.30;99.90;;;;;;5011885;28;20035;-82
2022/02/02 13:21:04;;;;;;;17.25;2.03;;;10.40;99.90;;;;;;4993930;28;20053;-81
2022/02/02 13:26:06;;;;;;;18.20;2.00;;;10.40;99.90;;;;;;5007043;28;20068;-83
2022/02/02 13:31:38;;;;;;;19.02;2.08;;;10.50;99.90;;;;;;4998249;28;20113;-82
2022/02/02 13:37:36;;;;;;;26.80;2.50;;;10.50;99.90;;;;;;5008100;28;20027;-83
2022/02/02 13:43:10;;;;;;;19.40;2.28;;;10.60;99.90;;;;;;5016611;28;20474;-82
2022/02/02 13:48:31;;;;;;;21.83;2.70;;;10.60;99.90;;;;;;5011552;28;20564;-82
2022/02/02 13:53:56;;;;;;;16.70;1.77;;;10.60;99.90;;;;;;5011125;28;20057;-83
2022/02/02 14:07:26;;;;;;;17.77;1.83;;;10.70;99.90;;;;;;5010853;28;20565;-81
2022/02/02 14:31:05;;;;;;;21.50;3.33;;;10.80;99.90;;;;;;4993681;28;20060;-82
2022/02/02 14:31:45;;;;;;;16.30;2.03;;;10.80;99.90;;;;;;5011402;28;20412;-81
2022/02/02 14:34:10;;;;;;;22.65;2.47;;;10.80;99.90;;;;;;5006281;28;20030;-82
2022/02/02 14:36:37;;;;;;;21.77;2.70;;;10.70;99.90;;;;;;5023969;28;20036;-82
2022/02/02 14:39:20;;;;;;;18.67;1.73;;;10.70;99.90;;;;;;4994078;28;20117;-83
2022/02/02 14:41:54;;;;;;;18.10;2.13;;;10.70;99.90;;;;;;4990585;28;20124;-83
2022/02/02 14:49:30;;;;;;;16.13;1.75;;;10.70;99.90;;;;;;5000580;28;20030;-83
2022/02/02 15:24:44;;;;;;;17.23;2.00;;;10.30;99.90;;;;;;5028069;28;20037;-83
2022/02/02 15:27:30;;;;;;;15.82;1.65;;;10.30;99.90;;;;;;5008399;28;20126;-82
2022/02/02 15:29:59;;;;;;;17.67;2.20;;;10.20;99.90;;;;;;4997213;28;20026;-82
2022/02/02 15:32:27;;;;;;;18.90;1.45;;;10.10;99.90;;;;;;4994761;28;20030;-82
2022/02/02 15:34:56;;;;;;;18.20;1.88;;;9.90;99.90;;;;;;5023306;28;20404;-83
2022/02/02 15:40:06;;;;;;;16.35;2.00;;;9.70;99.90;;;;;;5011566;28;20038;-83
2022/02/02 15:59:03;;;;;;;22.25;3.60;;;9.10;99.90;;;;;;5030007;28;20033;-82
2022/02/02 16:02:07;;;;;;;25.15;2.55;;;9.00;99.90;;;;;;5035357;28;20531;-82
2022/02/02 16:04:34;;;;;;;19.80;2.60;;;9.00;99.90;;;;;;5015042;28;20116;-83
2022/02/02 16:07:03;;;;;;;20.83;2.78;;;8.90;99.90;;;;;;5007162;28;20034;-79
2022/02/02 16:09:38;;;;;;;16.73;1.90;;;8.80;99.90;;;;;;5022385;28;20022;-79
2022/02/02 16:12:20;;;;;;;22.38;2.03;;;8.70;99.90;;;;;;5020508;28;20045;-80
2022/02/02 16:14:50;;;;;;;25.52;2.55;;;8.70;99.90;;;;;;5032754;28;20052;-80
2022/02/02 16:36:22;;;;;;;32.03;3.35;;;8.30;99.90;;;;;;5035571;28;20036;-80
2022/02/02 16:39:01;;;;;;;24.10;2.78;;;8.30;99.90;;;;;;5015588;28;20108;-80
2022/02/02 16:44:10;;;;;;;22.25;2.75;;;8.20;99.90;;;;;;4992784;28;20049;-78
2022/02/02 16:46:39;;;;;;;27.13;3.97;;;8.20;99.90;;;;;;5020686;28;20018;-79
2022/02/02 16:49:05;;;;;;;32.03;3.97;;;8.20;99.90;;;;;;4997714;28;20032;-79
2022/02/02 16:51:30;;;;;;;20.13;3.13;;;8.10;99.90;;;;;;5012604;28;20026;-79
2022/02/02 16:53:59;;;;;;;23.65;3.42;;;8.20;99.90;;;;;;5030483;28;20444;-79
2022/02/02 16:56:42;;;;;;;23.70;3.80;;;8.10;99.90;;;;;;5026717;28;20427;-80
2022/02/02 17:29:50;;;;;;;17.70;4.90;;;8.60;99.90;;;;;;5032347;28;20026;-79
2022/02/02 17:39:56;;;;;;;18.48;6.43;;;8.60;99.90;;;;;;4981482;28;20144;-79
2022/02/02 18:00:05;;;;;;;21.52;8.80;;;8.60;99.90;;;;;;5024977;28;20079;-79
2022/02/02 18:20:16;;;;;;;22.65;9.55;;;8.70;99.90;;;;;;5029346;28;20041;-79
2022/02/02 18:22:49;;;;;;;20.92;9.10;;;8.80;99.90;;;;;;5019060;28;20060;-78
2022/02/02 18:25:27;;;;;;;;;;;8.80;99.90;;;;;;5009228;28;20033;-79
2022/02/02 18:28:44;;;;;;;19.33;7.75;;;8.70;99.90;;;;;;5015784;28;19995;-79
2022/02/02 18:31:08;;;;;;;21.00;8.82;;;8.80;99.90;;;;;;5018652;28;20516;-80
2022/02/02 18:54:28;;;;;;;17.45;7.53;;;8.90;99.90;;;;;;5006300;28;20033;-77
2022/02/02 19:02:41;;;;;;;17.77;7.95;;;8.90;99.90;;;;;;4988440;28;20026;-77
2022/02/02 19:07:52;;;;;;;18.33;7.88;;;8.80;99.90;;;;;;5005928;28;20026;-79
2022/02/02 19:40:32;;;;;;;14.68;7.50;;;8.80;99.90;;;;;;5009891;28;20041;-80
2022/02/02 20:01:47;;;;;;;16.55;8.73;;;8.70;99.90;;;;;;5007653;28;20117;-80
2022/02/02 20:04:36;;;;;;;15.48;8.20;;;8.80;99.90;;;;;;4993995;28;20025;-80
2022/02/02 20:12:41;;;;;;;22.67;11.32;;;8.80;99.90;;;;;;5000668;28;20045;-79
2022/02/02 20:15:10;;;;;;;16.48;10.07;;;8.80;99.90;;;;;;5003078;28;20375;-79
2022/02/02 20:17:36;;;;;;;20.90;10.48;;;8.80;99.90;;;;;;5006996;28;20026;-80
2022/02/02 20:20:13;;;;;;;19.08;9.95;;;8.90;99.90;;;;;;4984539;28;20486;-80
2022/02/02 20:22:38;;;;;;;17.98;9.93;;;8.90;99.90;;;;;;5011337;28;20057;-79
2022/02/02 20:25:05;;;;;;;21.48;11.27;;;8.90;99.90;;;;;;5002004;28;20054;-79
2022/02/02 20:27:33;;;;;;;20.02;10.40;;;8.90;99.90;;;;;;5004718;28;20026;-80
2022/02/02 20:30:01;;;;;;;22.63;11.48;;;8.90;99.90;;;;;;5006036;28;20406;-79
2022/02/02 20:32:27;;;;;;;21.92;11.18;;;8.90;99.90;;;;;;5004958;28;20022;-79
2022/02/02 20:34:53;;;;;;;28.17;13.45;;;8.90;99.90;;;;;;5004081;28;20034;-79
2022/02/02 20:37:19;;;;;;;27.35;12.73;;;9.00;99.90;;;;;;5009007;28;20040;-80
2022/02/02 20:39:54;;;;;;;26.65;13.40;;;9.00;99.90;;;;;;5005074;28;20041;-79
2022/02/02 20:42:30;;;;;;;32.47;14.77;;;9.00;99.90;;;;;;5008602;28;20140;-79
2022/02/02 20:45:27;;;;;;;33.67;15.80;;;8.90;99.90;;;;;;4994588;28;20508;-79
2022/02/02 21:04:42;;;;;;;44.55;19.95;;;8.90;99.90;;;;;;5008291;28;20030;-78
2022/02/02 21:07:26;;;;;;;42.53;18.88;;;8.90;99.90;;;;;;5004154;28;20057;-79
2022/02/02 21:09:59;;;;;;;49.85;21.67;;;9.00;99.90;;;;;;5012663;28;20502;-79
2022/02/02 21:15:25;;;;;;;51.58;22.55;;;8.90;99.90;;;;;;5004966;28;20093;-79
2022/02/02 21:17:52;;;;;;;47.95;21.52;;;8.90;99.90;;;;;;5011045;28;20076;-78
2022/02/02 21:24:17;;;;;;;49.53;23.23;;;9.00;99.90;;;;;;5012717;28;20068;-78
2022/02/02 21:28:11;;;;;;;51.50;22.05;;;9.00;99.90;;;;;;5007834;28;20433;-77
2022/02/02 21:30:41;;;;;;;56.55;22.52;;;8.90;99.90;;;;;;5009792;28;20030;-80
2022/02/02 21:33:08;;;;;;;54.97;22.38;;;8.90;99.90;;;;;;5010377;28;20462;-80
2022/02/02 21:35:35;;;;;;;49.05;20.65;;;8.90;99.90;;;;;;4992009;28;20650;-79
2022/02/02 21:38:07;;;;;;;59.67;22.75;;;8.90;99.90;;;;;;5012031;28;20485;-80
2022/02/02 21:40:33;;;;;;;55.90;22.52;;;8.90;99.90;;;;;;5007867;28;20121;-80
2022/02/02 21:42:59;;;;;;;61.25;24.13;;;8.90;99.90;;;;;;5009746;28;20097;-80
2022/02/02 21:45:28;;;;;;;57.22;23.45;;;8.90;99.90;;;;;;4994249;28;20061;-80
2022/02/02 21:47:53;;;;;;;65.63;26.33;;;8.90;99.90;;;;;;5011112;28;20084;-80
2022/02/02 21:50:20;;;;;;;63.63;25.00;;;8.90;99.90;;;;;;4992825;28;20524;-80
2022/02/02 21:52:47;;;;;;;65.30;25.35;;;8.90;99.90;;;;;;5010005;28;20030;-80
2022/02/02 21:55:13;;;;;;;57.97;23.05;;;8.90;99.90;;;;;;4988747;28;20034;-79
2022/02/02 21:57:39;;;;;;;65.40;25.42;;;8.90;99.90;;;;;;5011569;28;20049;-80
2022/02/02 22:00:10;;;;;;;69.00;28.55;;;8.90;99.90;;;;;;5011171;28;20084;-80
2022/02/02 22:02:36;;;;;;;68.30;27.15;;;8.90;99.90;;;;;;5011415;28;20101;-80
2022/02/02 22:05:04;;;;;;;68.07;27.15;;;8.90;99.90;;;;;;5006665;28;20021;-79
2022/02/02 22:07:30;;;;;;;69.72;26.98;;;8.90;99.90;;;;;;5009436;28;20437;-80
2022/02/02 22:09:57;;;;;;;56.85;25.33;;;8.90;99.90;;;;;;4984357;28;20104;-80
2022/02/02 22:12:24;;;;;;;70.10;28.33;;;8.90;99.90;;;;;;4993381;28;20026;-80
2022/02/02 22:14:51;;;;;;;67.95;27.80;;;8.90;99.90;;;;;;5008718;28;20033;-79
2022/02/02 22:17:18;;;;;;;67.18;28.60;;;8.90;99.90;;;;;;4993525;28;20034;-80
2022/02/02 22:19:44;;;;;;;73.72;29.10;;;8.90;99.90;;;;;;5004195;28;20028;-80
2022/02/02 22:22:10;;;;;;;54.88;26.45;;;8.90;99.90;;;;;;5010727;28;20058;-80
2022/02/02 22:24:37;;;;;;;67.85;29.55;;;8.90;99.90;;;;;;5011431;28;20061;-81
2022/02/02 22:27:04;;;;;;;62.63;28.52;;;8.90;99.90;;;;;;5010810;28;20053;-80
2022/02/02 22:29:31;;;;;;;60.17;28.48;;;8.90;99.90;;;;;;5011764;28;20033;-81
2022/02/02 22:31:56;;;;;;;59.00;28.85;;;8.90;99.90;;;;;;5003090;28;20025;-80
2022/02/02 22:34:22;;;;;;;61.03;29.88;;;8.90;99.90;;;;;;5006313;28;20040;-79
2022/02/02 22:36:50;;;;;;;60.47;30.10;;;8.90;99.90;;;;;;4993434;28;20398;-79
2022/02/02 22:39:15;;;;;;;61.90;29.45;;;8.90;99.90;;;;;;5011941;28;20037;-79
2022/02/02 22:41:41;;;;;;;62.75;30.55;;;8.90;99.90;;;;;;5007691;28;20032;-78
2022/02/02 22:44:11;;;;;;;59.60;28.75;;;8.90;99.90;;;;;;5009110;28;20125;-79
2022/02/02 22:46:37;;;;;;;52.33;27.92;;;8.90;99.90;;;;;;5010499;28;20065;-80
2022/02/02 22:49:03;;;;;;;55.90;29.90;;;8.90;99.90;;;;;;5001911;28;20498;-79
2022/02/02 22:51:31;;;;;;;51.17;28.63;;;8.90;99.90;;;;;;4990124;28;20037;-80
2022/02/02 22:53:57;;;;;;;56.63;30.80;;;8.90;99.90;;;;;;5010971;28;20541;-80
2022/02/02 22:56:22;;;;;;;60.25;30.77;;;8.90;99.90;;;;;;5004269;28;20409;-79
2022/02/02 22:58:49;;;;;;;62.83;32.28;;;8.80;99.90;;;;;;4999717;28;20030;-79
2022/02/02 23:01:16;;;;;;;53.58;29.73;;;8.90;99.90;;;;;;5009088;28;20042;-78
2022/02/02 23:03:42;;;;;;;56.88;30.67;;;8.90;99.90;;;;;;5006381;28;20018;-79
2022/02/02 23:06:08;;;;;;;53.75;30.02;;;8.90;99.90;;;;;;5012238;28;20037;-79
2022/02/02 23:08:33;;;;;;;55.85;30.70;;;8.90;99.90;;;;;;5006456;28;20014;-79
2022/02/02 23:11:00;;;;;;;59.75;31.92;;;8.90;99.90;;;;;;5002262;28;20326;-79
2022/02/02 23:13:27;;;;;;;59.97;31.73;;;8.90;99.90;;;;;;5008756;28;20026;-79
2022/02/02 23:18:30;;;;;;;51.47;30.50;;;8.80;99.90;;;;;;5001022;28;20029;-78
2022/02/02 23:21:00;;;;;;;56.13;31.90;;;8.90;99.90;;;;;;5007861;28;20156;-78
2022/02/02 23:23:28;;;;;;;51.10;29.98;;;8.80;99.90;;;;;;5007497;28;20021;-80
2022/02/02 23:25:55;;;;;;;56.78;32.50;;;8.90;99.90;;;;;;5008043;28;20034;-79
2022/02/02 23:28:26;;;;;;;58.03;32.50;;;8.90;99.90;;;;;;5009434;28;20025;-78
2022/02/02 23:30:53;;;;;;;57.10;32.45;;;8.90;99.90;;;;;;4987636;28;20141;-79
2022/02/02 23:33:18;;;;;;;56.88;32.42;;;8.80;99.90;;;;;;5010148;28;20076;-79
2022/02/02 23:35:45;;;;;;;63.25;33.78;;;8.90;99.90;;;;;;5008862;28;20030;-79